Time;durP1;ratioP1;P1;durP2;ratioP2;P2;SDS_P1;SDS_P2;PMS_P1;PMS_P2;Temp;Humidity;BMP_temperature;BMP_pressure;BME280_temperature;BME280_humidity;BME280_pressure;Samples;Min_cycle;Max_cycle;Signal;HPM_P1;HPM_P2
2022/09/04 00:02:07;;;;;;;5.80;5.50;;;20.10;96.70;;;;;;5013687;28;20444;-67
2022/09/04 00:04:36;;;;;;;6.37;5.97;;;20.10;96.60;;;;;;5031788;28;20551;-72
2022/09/04 00:07:36;;;;;;;6.40;5.90;;;20.20;96.60;;;;;;5032022;28;20429;-66
2022/09/04 00:10:10;;;;;;;6.77;6.37;;;20.20;96.50;;;;;;5032151;28;20413;-66
2022/09/04 00:13:11;;;;;;;6.10;5.70;;;20.10;96.20;;;;;;5031278;28;20440;-68
2022/09/04 00:16:15;;;;;;;6.80;6.30;;;20.10;96.20;;;;;;5002164;28;20475;-68
2022/09/04 00:19:20;;;;;;;8.03;7.27;;;20.10;96.20;;;;;;5013198;28;20907;-67
2022/09/04 00:22:06;;;;;;;6.60;6.20;;;20.10;96.10;;;;;;5051117;28;20416;-67
2022/09/04 00:24:48;;;;;;;6.30;5.90;;;20.10;96.20;;;;;;5048974;28;20455;-66
2022/09/04 00:27:20;;;;;;;5.90;5.40;;;20.10;96.40;;;;;;5051476;28;20512;-67
2022/09/04 00:30:07;;;;;;;6.13;5.73;;;20.10;96.30;;;;;;5050864;28;20416;-66
2022/09/04 00:32:44;;;;;;;6.60;6.20;;;20.00;96.20;;;;;;5031499;28;20789;-71
2022/09/04 00:35:46;;;;;;;6.37;5.97;;;19.90;96.40;;;;;;5031789;28;20452;-66
2022/09/04 00:38:35;;;;;;;6.90;6.40;;;19.80;96.70;;;;;;5000846;28;20555;-67
2022/09/04 00:41:20;;;;;;;6.67;6.20;;;19.80;96.80;;;;;;5039247;28;20428;-66
2022/09/04 00:43:55;;;;;;;6.20;5.80;;;19.80;97.20;;;;;;5050047;28;20435;-66
2022/09/04 00:46:50;;;;;;;6.03;5.63;;;19.80;96.90;;;;;;5055522;28;20458;-66
2022/09/04 00:49:16;;;;;;;6.40;5.90;;;19.80;96.90;;;;;;5036032;28;20555;-66
2022/09/04 00:52:30;;;;;;;7.00;6.50;;;19.70;96.80;;;;;;5034200;28;20524;-67
2022/09/04 00:54:56;;;;;;;6.60;6.20;;;19.70;96.90;;;;;;5034432;28;20186;-67
2022/09/04 00:57:53;;;;;;;6.97;6.57;;;19.70;97.10;;;;;;5035288;28;20432;-66
2022/09/04 01:00:21;;;;;;;6.20;5.70;;;19.70;97.30;;;;;;5037904;28;20182;-66
2022/09/04 01:03:05;;;;;;;6.60;6.30;;;19.70;97.40;;;;;;4998471;28;20432;-66
2022/09/04 01:05:50;;;;;;;6.97;6.50;;;19.70;97.30;;;;;;5035148;28;20456;-66
2022/09/04 01:08:39;;;;;;;6.43;6.03;;;19.60;97.50;;;;;;5035204;28;20749;-66
2022/09/04 01:11:25;;;;;;;7.40;6.80;;;19.60;97.40;;;;;;5035052;28;20439;-66
2022/09/04 01:14:09;;;;;;;7.33;6.83;;;19.60;97.40;;;;;;5037399;28;20436;-69
2022/09/04 01:17:12;;;;;;;7.50;6.90;;;19.60;97.50;;;;;;5017173;28;20471;-66
2022/09/04 01:19:56;;;;;;;7.30;6.60;;;19.60;97.90;;;;;;5002426;28;20436;-72
2022/09/04 01:22:35;;;;;;;8.07;7.47;;;19.60;97.60;;;;;;5034835;28;20402;-66
2022/09/04 01:25:38;;;;;;;7.00;6.50;;;19.60;97.60;;;;;;5034101;28;20413;-66
2022/09/04 01:28:07;;;;;;;7.67;7.10;;;19.50;97.70;;;;;;5051487;28;20442;-66
2022/09/04 01:30:42;;;;;;;7.27;6.77;;;19.50;97.90;;;;;;5054619;28;20961;-66
2022/09/04 01:33:29;;;;;;;8.20;7.40;;;19.50;98.10;;;;;;5054579;28;20427;-66
2022/09/04 01:36:13;;;;;;;8.07;7.37;;;19.50;98.00;;;;;;5034605;28;20443;-67
2022/09/04 01:38:46;;;;;;;8.00;7.50;;;19.50;98.10;;;;;;5034189;28;20762;-71
2022/09/04 01:41:38;;;;;;;7.93;7.13;;;19.50;98.00;;;;;;5000658;28;20413;-66
2022/09/04 01:44:06;;;;;;;7.93;7.23;;;19.40;98.00;;;;;;5043022;28;20522;-66
2022/09/04 01:47:08;;;;;;;8.20;7.70;;;19.40;97.90;;;;;;5054318;28;20450;-66
2022/09/04 01:49:37;;;;;;;7.93;7.43;;;19.40;98.00;;;;;;5052430;28;20545;-66
2022/09/04 01:52:35;;;;;;;7.67;7.07;;;19.40;98.20;;;;;;5053603;28;20420;-66
2022/09/04 01:55:35;;;;;;;7.30;6.77;;;19.30;98.20;;;;;;5052727;28;20412;-66
2022/09/04 01:58:36;;;;;;;7.53;7.03;;;19.30;98.30;;;;;;5053458;28;20462;-66
2022/09/04 02:01:31;;;;;;;7.30;6.70;;;19.30;98.20;;;;;;5022235;28;20804;-66
2022/09/04 02:04:35;;;;;;;8.00;7.40;;;19.30;98.30;;;;;;5035128;28;21050;-66
2022/09/04 02:07:09;;;;;;;7.27;6.77;;;19.20;98.30;;;;;;4988184;28;20588;-66
2022/09/04 02:09:50;;;;;;;7.40;6.80;;;19.20;98.30;;;;;;5041896;28;20480;-66
2022/09/04 02:12:34;;;;;;;7.70;7.10;;;19.20;98.40;;;;;;5053863;28;20792;-66
2022/09/04 02:15:16;;;;;;;7.43;6.90;;;19.10;98.50;;;;;;5051970;28;20443;-66
2022/09/04 02:18:11;;;;;;;7.10;6.60;;;19.10;98.70;;;;;;5052918;28;20881;-71
2022/09/04 02:20:44;;;;;;;7.47;6.97;;;19.10;98.70;;;;;;5053848;28;20897;-66
2022/09/04 02:23:50;;;;;;;6.90;6.50;;;19.10;98.80;;;;;;5053766;28;20397;-66
2022/09/04 02:26:22;;;;;;;7.33;6.83;;;19.00;98.80;;;;;;5053889;28;20443;-66
2022/09/04 02:28:56;;;;;;;7.50;7.00;;;19.00;98.90;;;;;;5049479;28;20432;-67
2022/09/04 02:31:43;;;;;;;7.00;6.50;;;19.00;99.10;;;;;;5033661;28;20425;-66
2022/09/04 02:34:21;;;;;;;7.53;7.03;;;19.00;99.10;;;;;;5033375;28;20877;-66
2022/09/04 02:36:50;;;;;;;7.40;6.80;;;19.10;99.30;;;;;;5041505;28;20513;-67
2022/09/04 02:39:41;;;;;;;7.00;6.50;;;19.10;99.20;;;;;;5053247;28;20404;-66
2022/09/04 02:42:22;;;;;;;7.70;7.20;;;19.00;99.10;;;;;;5052673;28;20389;-66
2022/09/04 02:45:18;;;;;;;7.30;6.80;;;19.00;99.00;;;;;;5052696;28;20427;-66
2022/09/04 02:48:00;;;;;;;7.37;6.87;;;19.00;98.70;;;;;;5052707;28;20405;-71
2022/09/04 02:50:55;;;;;;;6.67;6.27;;;19.00;98.70;;;;;;5051385;28;20460;-66
2022/09/04 02:53:43;;;;;;;7.77;7.20;;;19.00;98.60;;;;;;5052817;28;20538;-66
2022/09/04 02:56:50;;;;;;;6.97;6.57;;;19.00;98.80;;;;;;5036783;28;20492;-66
2022/09/04 02:59:16;;;;;;;7.13;6.73;;;18.90;98.70;;;;;;5051768;28;20446;-66
2022/09/04 03:01:50;;;;;;;8.10;7.50;;;18.90;98.80;;;;;;5051502;28;20793;-71
2022/09/04 03:04:40;;;;;;;6.93;6.43;;;18.90;98.80;;;;;;5053019;28;20592;-66
2022/09/04 03:07:09;;;;;;;7.87;7.33;;;18.90;99.20;;;;;;5051383;28;20509;-66
2022/09/04 03:09:46;;;;;;;7.13;6.73;;;18.90;99.60;;;;;;5034843;28;20420;-66
2022/09/04 03:12:50;;;;;;;7.17;6.67;;;18.90;99.00;;;;;;5052805;28;20388;-66
2022/09/04 03:15:30;;;;;;;6.63;6.23;;;18.90;99.30;;;;;;5051179;28;20810;-66
2022/09/04 03:18:12;;;;;;;7.03;6.57;;;18.80;99.00;;;;;;5051562;28;20412;-66
2022/09/04 03:20:53;;;;;;;6.90;6.50;;;18.80;98.80;;;;;;5052617;28;20462;-66
2022/09/04 03:23:20;;;;;;;6.13;5.83;;;18.80;99.00;;;;;;5052674;28;20749;-66
2022/09/04 03:25:49;;;;;;;6.60;6.20;;;18.80;98.90;;;;;;5051903;28;20412;-71
2022/09/04 03:28:51;;;;;;;6.30;5.90;;;18.80;98.90;;;;;;5051571;28;20416;-67
2022/09/04 03:31:29;;;;;;;6.73;6.23;;;18.80;98.90;;;;;;4993641;28;20945;-66
2022/09/04 03:34:11;;;;;;;6.60;6.20;;;18.80;98.90;;;;;;5051694;28;20404;-66
2022/09/04 03:36:56;;;;;;;6.90;6.30;;;18.80;98.90;;;;;;5052491;28;20777;-66
2022/09/04 03:39:39;;;;;;;7.80;7.20;;;18.70;98.80;;;;;;5040103;28;20440;-67
2022/09/04 03:42:26;;;;;;;7.17;6.67;;;18.70;99.00;;;;;;5031609;28;20589;-66
2022/09/04 03:45:28;;;;;;;7.20;6.80;;;18.70;99.20;;;;;;5042547;28;20428;-66
2022/09/04 03:48:00;;;;;;;6.27;5.87;;;18.70;99.30;;;;;;5051434;28;20475;-66
2022/09/04 03:50:32;;;;;;;6.50;6.10;;;18.70;99.10;;;;;;5050935;28;20968;-66
2022/09/04 03:53:17;;;;;;;6.57;6.17;;;18.70;99.10;;;;;;5051404;28;20454;-66
2022/09/04 03:56:10;;;;;;;6.80;6.30;;;18.60;99.10;;;;;;5052055;28;20490;-66
2022/09/04 03:59:00;;;;;;;7.33;6.83;;;18.60;99.30;;;;;;5051182;28;20476;-66
2022/09/04 04:01:32;;;;;;;7.50;6.90;;;18.50;99.40;;;;;;5051086;28;20436;-66
2022/09/04 04:04:26;;;;;;;7.07;6.50;;;18.50;99.50;;;;;;5050275;28;20436;-66
2022/09/04 04:07:10;;;;;;;6.50;6.10;;;18.50;99.50;;;;;;5004511;28;20826;-67
2022/09/04 04:09:59;;;;;;;6.70;6.30;;;18.40;99.60;;;;;;5051688;28;20488;-66
2022/09/04 04:12:50;;;;;;;7.00;6.50;;;18.40;99.50;;;;;;5049661;28;20432;-66
2022/09/04 04:15:45;;;;;;;7.00;6.50;;;18.40;99.60;;;;;;5052140;28;20505;-66
2022/09/04 04:18:37;;;;;;;6.43;6.03;;;18.30;99.70;;;;;;5052300;28;20865;-66
2022/09/04 04:21:03;;;;;;;6.50;6.10;;;18.30;99.90;;;;;;5037359;28;20400;-66
2022/09/04 04:23:47;;;;;;;6.83;6.33;;;18.30;99.90;;;;;;5055940;28;20419;-66
2022/09/04 04:26:39;;;;;;;5.80;5.50;;;18.30;99.90;;;;;;5055391;28;20185;-66
2022/09/04 04:29:29;;;;;;;6.57;6.07;;;18.30;99.90;;;;;;5007135;28;21006;-66
2022/09/04 04:32:23;;;;;;;6.40;5.90;;;18.40;99.90;;;;;;5051241;28;20432;-66
2022/09/04 04:35:00;;;;;;;7.87;7.13;;;18.50;99.90;;;;;;5049351;28;20446;-71
2022/09/04 04:37:58;;;;;;;9.80;9.00;;;18.40;99.70;;;;;;5055655;28;20519;-66
2022/09/04 04:41:04;;;;;;;6.77;6.37;;;18.50;99.70;;;;;;5054555;28;20431;-66
2022/09/04 04:43:48;;;;;;;6.57;6.17;;;18.50;99.80;;;;;;5053199;28;20406;-66
2022/09/04 04:46:22;;;;;;;7.03;6.53;;;18.60;99.80;;;;;;5035098;28;20401;-66
2022/09/04 04:49:26;;;;;;;7.30;6.80;;;18.50;99.70;;;;;;5035062;28;20409;-66
2022/09/04 04:52:17;;;;;;;9.30;8.60;;;18.60;99.80;;;;;;5034896;28;20411;-72
2022/09/04 04:55:30;;;;;;;6.40;6.00;;;18.50;99.90;;;;;;5035078;28;20432;-66
2022/09/04 04:58:04;;;;;;;5.67;5.37;;;18.60;99.90;;;;;;4947363;28;20948;-66
2022/09/04 05:00:42;;;;;;;7.17;6.67;;;18.60;99.90;;;;;;5040247;28;20439;-66
2022/09/04 05:03:26;;;;;;;5.70;5.40;;;18.60;99.90;;;;;;5054445;28;20421;-66
2022/09/04 05:06:01;;;;;;;6.43;5.87;;;18.60;99.90;;;;;;5054734;28;20527;-71
2022/09/04 05:08:36;;;;;;;6.90;6.50;;;18.70;99.90;;;;;;5054079;28;20511;-66
2022/09/04 05:11:12;;;;;;;7.20;6.70;;;18.70;99.90;;;;;;5054272;28;20411;-66
2022/09/04 05:14:12;;;;;;;6.43;5.93;;;18.70;99.90;;;;;;5054346;28;20435;-66
2022/09/04 05:16:56;;;;;;;9.20;6.53;;;18.70;99.90;;;;;;5054955;28;20538;-66
2022/09/04 05:19:59;;;;;;;6.10;5.70;;;18.70;99.90;;;;;;5052755;28;20436;-66
2022/09/04 05:22:35;;;;;;;6.90;6.50;;;18.70;99.90;;;;;;5054755;28;20400;-66
2022/09/04 05:25:38;;;;;;;6.93;6.53;;;18.70;99.90;;;;;;5035127;28;20436;-66
2022/09/04 05:28:43;;;;;;;7.07;6.60;;;18.70;99.90;;;;;;5053658;28;20811;-66
2022/09/04 05:31:36;;;;;;;7.03;6.43;;;18.70;99.90;;;;;;4995244;28;20448;-66
2022/09/04 05:34:17;;;;;;;7.27;6.77;;;18.80;99.90;;;;;;5033794;28;20871;-67
2022/09/04 05:37:20;;;;;;;7.00;6.50;;;18.80;99.90;;;;;;5034603;28;20481;-66
2022/09/04 05:40:04;;;;;;;6.50;6.10;;;18.80;99.90;;;;;;5033967;28;20431;-65
2022/09/04 05:43:03;;;;;;;7.03;6.53;;;18.80;99.90;;;;;;5038488;28;20440;-65
2022/09/04 05:45:58;;;;;;;7.00;6.50;;;18.80;99.90;;;;;;5034848;28;20430;-65
2022/09/04 05:49:04;;;;;;;7.43;6.93;;;18.90;99.90;;;;;;5047328;28;20454;-65
2022/09/04 05:51:48;;;;;;;6.90;6.40;;;18.90;99.90;;;;;;5054007;28;20467;-65
2022/09/04 05:54:13;;;;;;;7.20;6.80;;;18.90;99.90;;;;;;5054065;28;20404;-65
2022/09/04 05:57:21;;;;;;;6.93;6.53;;;19.00;99.90;;;;;;5054445;28;20456;-65
2022/09/04 06:00:22;;;;;;;8.40;7.67;;;19.10;99.90;;;;;;4962565;28;20196;-66
2022/09/04 06:03:23;;;;;;;9.10;8.30;;;19.20;99.90;;;;;;4968769;28;20444;-66
2022/09/04 06:06:08;;;;;;;7.90;7.27;;;19.20;99.90;;;;;;4994970;28;20456;-66
2022/09/04 06:09:10;;;;;;;8.20;7.70;;;19.30;99.90;;;;;;5034717;28;20433;-66
2022/09/04 06:11:45;;;;;;;8.23;7.43;;;19.30;99.90;;;;;;5047127;28;20415;-68
2022/09/04 06:14:37;;;;;;;7.90;7.30;;;19.50;99.90;;;;;;5022782;28;20414;-68
2022/09/04 06:17:23;;;;;;;7.73;7.30;;;19.70;99.90;;;;;;5033604;28;20810;-68
2022/09/04 06:20:27;;;;;;;7.07;6.67;;;20.00;99.90;;;;;;5041859;28;20445;-68
2022/09/04 06:23:11;;;;;;;8.27;7.57;;;20.30;99.90;;;;;;5002519;28;20420;-68
2022/09/04 06:25:45;;;;;;;7.97;7.40;;;20.60;99.90;;;;;;5043423;28;20409;-68
2022/09/04 06:28:44;;;;;;;7.73;7.30;;;20.80;99.90;;;;;;5033745;28;20413;-67
2022/09/04 06:31:19;;;;;;;8.30;7.70;;;21.10;99.30;;;;;;5036619;28;20468;-67
2022/09/04 06:33:47;;;;;;;7.30;6.80;;;21.30;98.60;;;;;;5026444;28;20436;-67
2022/09/04 06:36:32;;;;;;;6.63;6.23;;;21.40;98.30;;;;;;5033236;28;20487;-67
2022/09/04 06:39:30;;;;;;;7.23;6.73;;;21.50;97.90;;;;;;5032938;28;20425;-68
2022/09/04 06:42:18;;;;;;;7.83;7.33;;;21.70;97.80;;;;;;5037981;28;20433;-69
2022/09/04 06:45:08;;;;;;;7.13;6.63;;;21.80;97.30;;;;;;5015810;28;20401;-68
2022/09/04 06:47:45;;;;;;;9.20;8.60;;;21.90;97.00;;;;;;5045352;28;20808;-68
2022/09/04 06:50:14;;;;;;;7.57;7.17;;;22.10;96.80;;;;;;5038624;28;20452;-68
2022/09/04 06:52:55;;;;;;;8.20;7.70;;;22.20;96.60;;;;;;4985681;28;20434;-67
2022/09/04 06:55:28;;;;;;;8.37;7.77;;;22.30;96.50;;;;;;5049334;28;21420;-68
2022/09/04 06:58:27;;;;;;;9.03;8.43;;;22.30;96.30;;;;;;5024182;28;20448;-67
2022/09/04 07:01:10;;;;;;;7.13;6.63;;;22.40;96.40;;;;;;5051589;28;20428;-67
2022/09/04 07:03:57;;;;;;;7.70;7.17;;;22.50;96.30;;;;;;5032593;28;20401;-69
2022/09/04 07:06:50;;;;;;;7.00;6.40;;;22.60;96.20;;;;;;5039293;28;20766;-70
2022/09/04 07:09:25;;;;;;;7.03;6.53;;;22.60;96.00;;;;;;5004910;28;20975;-69
2022/09/04 07:12:03;;;;;;;15.87;14.20;;;22.70;95.80;;;;;;5037052;28;20427;-66
2022/09/04 07:14:44;;;;;;;9.50;8.70;;;22.70;95.60;;;;;;5012513;28;20809;-65
2022/09/04 07:17:35;;;;;;;11.40;9.53;;;22.80;95.20;;;;;;5032501;28;20547;-65
2022/09/04 07:20:05;;;;;;;8.00;7.30;;;22.90;94.60;;;;;;5027679;28;20441;-69
2022/09/04 07:23:14;;;;;;;344.77;306.90;;;22.90;94.70;;;;;;5046147;28;20456;-69
2022/09/04 07:25:59;;;;;;;58.37;48.73;;;23.00;94.90;;;;;;5019673;28;20763;-68
2022/09/04 07:28:46;;;;;;;21.30;19.13;;;23.10;94.50;;;;;;5043280;28;20788;-68
2022/09/04 07:31:23;;;;;;;558.33;503.97;;;23.10;94.40;;;;;;5040374;28;20433;-69
2022/09/04 07:34:06;;;;;;;140.20;125.50;;;23.10;94.90;;;;;;5032912;28;20867;-68
2022/09/04 07:36:55;;;;;;;13.30;12.10;;;23.10;95.20;;;;;;5031250;28;20906;-69
2022/09/04 07:39:44;;;;;;;10.63;9.63;;;23.10;95.10;;;;;;5040564;28;20760;-68
2022/09/04 07:42:27;;;;;;;5.77;5.40;;;23.10;95.00;;;;;;5040300;28;20489;-69
2022/09/04 07:45:05;;;;;;;10.23;9.33;;;23.00;96.10;;;;;;5023115;28;20408;-68
2022/09/04 07:47:43;;;;;;;8.47;7.77;;;23.00;95.60;;;;;;5040673;28;20422;-69
2022/09/04 07:50:38;;;;;;;10.70;9.80;;;23.00;95.60;;;;;;5039539;28;20448;-68
2022/09/04 07:53:41;;;;;;;8.03;7.53;;;23.10;96.00;;;;;;5030468;28;20425;-69
2022/09/04 07:56:06;;;;;;;8.87;8.17;;;23.10;96.00;;;;;;5016445;28;20473;-69
2022/09/04 07:59:12;;;;;;;7.10;6.60;;;23.10;95.80;;;;;;5037824;28;20950;-68
2022/09/04 08:01:53;;;;;;;8.80;8.10;;;23.20;96.00;;;;;;5026974;28;20189;-68
2022/09/04 08:04:42;;;;;;;51.20;45.20;;;23.00;95.90;;;;;;5016239;28;20837;-68
2022/09/04 08:07:34;;;;;;;45.93;41.07;;;23.10;95.40;;;;;;5038280;28;20825;-68
2022/09/04 08:10:06;;;;;;;56.53;44.07;;;23.30;95.90;;;;;;5004608;28;20421;-68
2022/09/04 08:12:49;;;;;;;29.47;25.27;;;23.30;95.80;;;;;;5039472;28;20993;-70
2022/09/04 08:15:20;;;;;;;15.23;13.77;;;23.40;95.50;;;;;;5038810;28;20431;-68
2022/09/04 08:18:22;;;;;;;8.70;8.00;;;23.50;95.70;;;;;;5042124;28;20466;-68
2022/09/04 08:21:07;;;;;;;12.53;11.50;;;23.60;96.00;;;;;;5042010;28;20396;-68
2022/09/04 08:23:35;;;;;;;11.00;9.93;;;23.60;95.00;;;;;;5040299;28;20780;-70
2022/09/04 08:26:13;;;;;;;7.47;6.97;;;23.70;95.20;;;;;;5040111;28;20503;-69
2022/09/04 08:28:55;;;;;;;8.87;8.17;;;23.70;94.80;;;;;;5041011;28;20416;-68
2022/09/04 08:31:30;;;;;;;10.27;9.43;;;23.80;95.50;;;;;;5039532;28;20442;-68
2022/09/04 08:34:19;;;;;;;10.03;9.10;;;23.80;95.20;;;;;;5036365;28;20467;-70
2022/09/04 08:37:20;;;;;;;161.93;126.30;;;23.80;95.00;;;;;;5042284;28;20448;-70
2022/09/04 08:40:20;;;;;;;23.63;21.10;;;23.80;94.30;;;;;;5035857;28;20431;-69
2022/09/04 08:43:10;;;;;;;19.33;15.13;;;23.90;95.20;;;;;;5039164;28;20428;-69
2022/09/04 08:45:54;;;;;;;12.53;11.37;;;23.90;94.50;;;;;;5040008;28;20409;-68
2022/09/04 08:48:51;;;;;;;13.13;11.83;;;23.90;95.40;;;;;;5039535;28;20659;-69
2022/09/04 08:51:48;;;;;;;8.97;8.30;;;24.00;94.90;;;;;;5036571;28;20471;-69
2022/09/04 08:54:31;;;;;;;9.00;8.30;;;24.00;95.00;;;;;;5027285;28;20527;-68
2022/09/04 08:56:57;;;;;;;11.63;10.40;;;24.10;95.30;;;;;;5036206;28;20466;-69
2022/09/04 08:59:53;;;;;;;10.53;9.43;;;24.10;94.10;;;;;;5039314;28;20429;-68
2022/09/04 09:02:43;;;;;;;14.53;13.03;;;24.20;95.20;;;;;;5036136;28;20186;-69
2022/09/04 09:05:34;;;;;;;14.60;12.43;;;24.20;94.60;;;;;;5039285;28;20401;-68
2022/09/04 09:08:30;;;;;;;14.40;12.80;;;24.30;94.90;;;;;;5041710;28;20451;-73
2022/09/04 09:11:13;;;;;;;16.90;10.27;;;24.40;95.40;;;;;;5041946;28;20520;-67
2022/09/04 09:14:16;;;;;;;5.90;5.50;;;24.50;95.20;;;;;;5042965;28;20988;-69
2022/09/04 09:16:46;;;;;;;6.40;6.00;;;24.60;94.60;;;;;;5044301;28;20470;-68
2022/09/04 09:19:22;;;;;;;5.63;5.33;;;24.60;94.40;;;;;;5020632;28;20904;-68
2022/09/04 09:22:47;;;;;;;5.93;5.63;;;24.70;94.60;;;;;;5033759;28;20431;-69
2022/09/04 09:25:30;;;;;;;7.10;6.43;;;24.70;93.90;;;;;;4959183;28;20507;-69
2022/09/04 09:28:08;;;;;;;7.17;6.70;;;24.90;94.30;;;;;;4962296;28;20420;-68
2022/09/04 09:31:01;;;;;;;41.70;37.20;;;25.00;94.20;;;;;;5013965;28;20839;-68
2022/09/04 09:33:29;;;;;;;30.10;27.20;;;25.10;93.60;;;;;;5033565;28;20440;-68
2022/09/04 09:36:01;;;;;;;11.90;10.93;;;25.20;93.20;;;;;;5040270;28;20444;-68
2022/09/04 09:38:48;;;;;;;9.13;8.43;;;25.40;93.20;;;;;;5042738;28;20514;-68
2022/09/04 09:41:36;;;;;;;7.70;7.20;;;25.60;93.90;;;;;;5042223;28;20417;-68
2022/09/04 09:44:04;;;;;;;12.43;10.60;;;25.90;92.70;;;;;;5037314;28;20937;-74
2022/09/04 09:46:38;;;;;;;11.90;10.73;;;26.20;92.10;;;;;;5042080;28;20425;-68
2022/09/04 09:49:42;;;;;;;6.87;6.23;;;26.30;91.10;;;;;;5039137;28;20446;-68
2022/09/04 09:52:37;;;;;;;7.57;7.00;;;26.50;91.20;;;;;;5040426;28;20431;-68
2022/09/04 09:55:47;;;;;;;6.43;5.93;;;26.80;90.20;;;;;;4990162;28;20817;-74
2022/09/04 09:58:43;;;;;;;6.80;6.40;;;26.90;89.50;;;;;;5008559;28;20432;-68
2022/09/04 10:01:24;;;;;;;6.13;5.70;;;27.10;90.00;;;;;;5023077;28;20765;-68
2022/09/04 10:04:27;;;;;;;5.80;5.40;;;27.30;89.50;;;;;;5041619;28;20443;-70
2022/09/04 10:07:13;;;;;;;6.87;6.37;;;27.50;87.20;;;;;;5037933;28;20437;-69
2022/09/04 10:10:02;;;;;;;5.97;5.47;;;27.70;85.70;;;;;;5036729;28;20935;-69
2022/09/04 10:12:57;;;;;;;5.97;5.60;;;28.00;86.00;;;;;;5024962;28;20809;-69
2022/09/04 10:15:41;;;;;;;5.60;5.20;;;28.20;84.30;;;;;;5036590;28;20460;-69
2022/09/04 10:18:25;;;;;;;6.90;6.40;;;28.20;83.70;;;;;;5025197;28;20412;-69
2022/09/04 10:21:19;;;;;;;7.00;6.50;;;28.30;83.20;;;;;;5042376;28;20416;-69
2022/09/04 10:23:47;;;;;;;6.73;6.33;;;28.30;81.90;;;;;;5043096;28;20493;-68
2022/09/04 10:26:50;;;;;;;9.30;8.60;;;28.30;82.40;;;;;;5040192;28;20416;-69
2022/09/04 10:29:43;;;;;;;356.10;318.97;;;28.20;81.60;;;;;;5036975;28;20432;-69
2022/09/04 10:32:32;;;;;;;21.83;19.60;;;28.10;81.80;;;;;;5025330;28;20409;-68
2022/09/04 10:35:20;;;;;;;9.97;9.27;;;28.00;81.30;;;;;;5032616;28;20447;-72
2022/09/04 10:37:49;;;;;;;7.97;7.37;;;27.90;82.60;;;;;;5045089;28;20427;-70
2022/09/04 10:40:52;;;;;;;7.87;7.23;;;27.90;81.20;;;;;;5040574;28;20413;-69
2022/09/04 10:43:31;;;;;;;8.90;8.20;;;27.70;81.80;;;;;;5039372;28;21299;-68
2022/09/04 10:46:18;;;;;;;8.27;7.67;;;27.60;82.90;;;;;;5003766;28;20421;-69
2022/09/04 10:48:47;;;;;;;9.93;9.07;;;27.50;82.70;;;;;;5040918;28;20459;-71
2022/09/04 10:51:33;;;;;;;7.73;7.20;;;27.50;83.50;;;;;;5040784;28;20526;-68
2022/09/04 10:54:38;;;;;;;10.27;9.47;;;27.70;83.50;;;;;;5034782;28;20432;-69
2022/09/04 10:57:29;;;;;;;11.77;10.57;;;28.00;82.10;;;;;;5050378;28;20497;-66
2022/09/04 11:00:07;;;;;;;7.80;7.20;;;27.80;81.30;;;;;;5043683;28;20477;-67
2022/09/04 11:02:45;;;;;;;7.10;6.60;;;27.80;81.40;;;;;;5036673;28;20432;-68
2022/09/04 11:05:23;;;;;;;7.00;6.60;;;27.90;81.20;;;;;;5039828;28;20831;-68
2022/09/04 11:08:19;;;;;;;6.70;6.37;;;28.10;81.20;;;;;;5042033;28;20426;-68
2022/09/04 11:11:07;;;;;;;7.43;6.93;;;28.40;79.60;;;;;;5049401;28;20427;-68
2022/09/04 11:14:04;;;;;;;7.10;6.70;;;28.70;78.80;;;;;;5037961;28;20472;-67
2022/09/04 11:16:55;;;;;;;7.60;7.03;;;28.90;77.70;;;;;;5049760;28;20839;-68
2022/09/04 11:19:45;;;;;;;6.77;6.20;;;29.10;78.10;;;;;;5050628;28;20714;-68
2022/09/04 11:22:34;;;;;;;6.90;6.30;;;29.30;75.00;;;;;;5037432;28;20479;-70
2022/09/04 11:25:25;;;;;;;7.43;6.97;;;29.40;72.70;;;;;;5041949;28;20439;-73
2022/09/04 11:28:24;;;;;;;7.73;7.13;;;29.50;72.90;;;;;;5043699;28;20984;-69
2022/09/04 11:31:00;;;;;;;7.70;7.20;;;29.30;71.90;;;;;;5037234;28;20948;-68
2022/09/04 11:34:00;;;;;;;7.47;7.07;;;29.10;73.10;;;;;;5048495;28;20440;-69
2022/09/04 11:37:03;;;;;;;7.83;6.07;;;29.00;74.20;;;;;;5006817;28;20552;-68
2022/09/04 11:39:56;;;;;;;8.27;7.47;;;29.00;73.90;;;;;;5034817;28;20432;-68
2022/09/04 11:42:56;;;;;;;10.00;7.50;;;29.20;74.00;;;;;;5051725;28;20891;-68
2022/09/04 11:45:40;;;;;;;8.63;8.13;;;29.20;73.10;;;;;;5046636;28;20439;-69
2022/09/04 11:48:18;;;;;;;8.00;7.60;;;29.10;73.20;;;;;;5048169;28;20449;-68
2022/09/04 11:51:08;;;;;;;7.60;7.20;;;29.00;72.70;;;;;;5047583;28;20841;-68
2022/09/04 11:54:11;;;;;;;8.23;7.63;;;28.90;73.20;;;;;;5030778;28;20443;-69
2022/09/04 11:57:01;;;;;;;6.63;6.30;;;28.80;73.40;;;;;;5045904;28;20792;-69
2022/09/04 11:59:45;;;;;;;7.57;7.07;;;28.60;74.20;;;;;;5045253;28;20559;-67
2022/09/04 12:02:37;;;;;;;6.30;5.90;;;28.50;74.20;;;;;;5039251;28;21045;-68
2022/09/04 12:05:15;;;;;;;7.00;6.50;;;28.40;75.70;;;;;;5036390;28;20504;-73
2022/09/04 12:07:46;;;;;;;7.23;6.63;;;28.40;75.80;;;;;;5049802;28;20513;-68
2022/09/04 12:10:15;;;;;;;6.80;6.40;;;28.40;77.50;;;;;;5044306;28;20754;-72
2022/09/04 12:13:19;;;;;;;6.23;5.93;;;28.40;75.30;;;;;;5033970;28;20456;-68
2022/09/04 12:16:08;;;;;;;6.80;6.40;;;28.30;75.60;;;;;;5038966;28;20456;-68
2022/09/04 12:19:08;;;;;;;6.90;6.50;;;28.20;75.40;;;;;;5043715;28;20441;-68
2022/09/04 12:22:04;;;;;;;7.37;6.77;;;28.20;76.10;;;;;;5049022;28;20443;-68
2022/09/04 12:24:45;;;;;;;6.87;6.50;;;28.10;75.50;;;;;;5049578;28;20432;-68
2022/09/04 12:27:26;;;;;;;6.30;5.90;;;28.10;76.10;;;;;;5045906;28;20934;-68
2022/09/04 12:30:04;;;;;;;6.13;5.73;;;28.20;77.70;;;;;;5018318;28;20486;-69
2022/09/04 12:32:54;;;;;;;6.43;6.03;;;28.30;76.60;;;;;;5040528;28;20432;-68
2022/09/04 12:35:29;;;;;;;6.03;5.73;;;28.20;75.70;;;;;;5045976;28;20440;-69
2022/09/04 12:38:26;;;;;;;6.50;6.10;;;28.30;76.00;;;;;;5045025;28;20542;-68
2022/09/04 12:41:06;;;;;;;5.60;5.30;;;28.20;75.30;;;;;;5033539;28;20788;-69
2022/09/04 12:43:56;;;;;;;6.40;6.10;;;28.20;75.40;;;;;;5051633;28;20396;-68
2022/09/04 12:46:24;;;;;;;6.73;6.33;;;28.10;76.00;;;;;;5040011;28;21132;-68
2022/09/04 12:48:53;;;;;;;6.40;5.90;;;28.00;75.20;;;;;;4988107;28;20445;-68
2022/09/04 12:51:25;;;;;;;6.40;6.10;;;27.80;73.80;;;;;;5045505;28;21002;-68
2022/09/04 12:54:28;;;;;;;7.30;6.87;;;27.70;74.40;;;;;;5035350;28;20404;-68
2022/09/04 12:57:26;;;;;;;5.97;5.67;;;27.60;75.70;;;;;;5052813;28;20457;-67
2022/09/04 13:00:04;;;;;;;7.33;6.77;;;27.60;76.90;;;;;;5053644;28;20777;-68
2022/09/04 13:03:07;;;;;;;6.83;6.33;;;27.70;76.60;;;;;;5047082;28;20463;-68
2022/09/04 13:05:39;;;;;;;7.13;6.63;;;27.70;76.50;;;;;;5030109;28;20436;-67
2022/09/04 13:08:36;;;;;;;6.50;6.10;;;27.70;75.60;;;;;;5051753;28;20432;-68
2022/09/04 13:11:43;;;;;;;6.43;6.03;;;27.50;75.60;;;;;;5048625;28;20435;-68
2022/09/04 13:14:56;;;;;;;6.63;6.03;;;27.40;77.30;;;;;;4940043;29;20463;-68
2022/09/04 13:18:02;;;;;;;6.80;6.30;;;27.40;78.40;;;;;;5051188;28;20789;-70
2022/09/04 13:20:39;;;;;;;6.97;6.40;;;27.30;78.20;;;;;;5025747;28;20978;-68
2022/09/04 13:23:19;;;;;;;6.23;5.83;;;27.30;77.30;;;;;;5036001;28;20437;-72
2022/09/04 13:26:28;;;;;;;5.83;5.53;;;27.20;77.10;;;;;;5047844;28;20440;-70
2022/09/04 13:29:16;;;;;;;6.67;6.10;;;27.20;77.60;;;;;;5037783;28;20818;-69
2022/09/04 13:31:53;;;;;;;6.67;6.10;;;27.10;78.20;;;;;;5041306;28;20429;-69
2022/09/04 13:34:31;;;;;;;6.13;5.77;;;27.10;78.50;;;;;;5038410;28;20435;-69
2022/09/04 13:37:20;;;;;;;7.57;7.07;;;27.10;78.70;;;;;;5051274;28;20953;-69
2022/09/04 13:40:04;;;;;;;6.20;5.67;;;27.10;79.90;;;;;;5046173;28;20433;-72
2022/09/04 13:42:41;;;;;;;7.00;6.40;;;27.10;79.60;;;;;;5038824;28;20907;-70
2022/09/04 13:45:36;;;;;;;6.93;6.40;;;27.10;78.20;;;;;;5044685;28;20773;-74
2022/09/04 13:48:15;;;;;;;5.90;5.60;;;27.20;78.60;;;;;;5021073;28;20433;-68
2022/09/04 13:50:55;;;;;;;6.33;6.03;;;27.30;77.80;;;;;;5062445;28;20509;-69
2022/09/04 13:53:31;;;;;;;6.50;6.10;;;27.40;77.50;;;;;;5063973;28;20471;-69
2022/09/04 13:56:00;;;;;;;6.40;5.93;;;27.50;76.10;;;;;;5068991;28;20455;-69
2022/09/04 13:58:47;;;;;;;5.97;5.67;;;27.50;75.80;;;;;;5055934;28;20492;-69
2022/09/04 14:01:20;;;;;;;5.57;5.27;;;27.50;76.30;;;;;;5065415;28;20423;-68
2022/09/04 14:03:52;;;;;;;6.20;5.90;;;27.50;76.40;;;;;;5023823;28;20870;-68
2022/09/04 14:06:21;;;;;;;6.93;6.53;;;27.50;75.50;;;;;;5066388;28;20426;-68
2022/09/04 14:08:49;;;;;;;12.30;11.27;;;27.40;74.20;;;;;;5064134;28;20510;-66
2022/09/04 14:11:40;;;;;;;45.03;40.93;;;27.40;74.70;;;;;;5066783;28;20510;-67
2022/09/04 14:14:32;;;;;;;7.43;6.93;;;27.40;75.50;;;;;;5070626;28;20565;-72
2022/09/04 14:16:58;;;;;;;5.40;5.10;;;27.50;75.90;;;;;;5069440;28;20966;-66
2022/09/04 14:19:42;;;;;;;5.37;5.07;;;27.60;76.20;;;;;;5062041;28;20408;-66
2022/09/04 14:22:28;;;;;;;5.30;5.10;;;27.60;74.60;;;;;;5057954;28;20420;-72